createdAt,value
2018-09-23T00:00:03.416Z,30.42
2018-09-23T00:00:38.744Z,30.04
2018-09-23T00:01:14.072Z,30.13
2018-09-23T00:01:49.495Z,30.42
2018-09-23T00:02:24.985Z,30.32
2018-09-23T00:03:00.641Z,30.23
2018-09-23T00:03:36.140Z,30.13
2018-09-23T00:04:11.662Z,30.42
2018-09-23T00:04:46.966Z,30.32
2018-09-23T00:05:22.425Z,30.32
2018-09-23T00:05:57.660Z,30.32
2018-09-23T00:06:33.022Z,29.75
2018-09-23T00:07:08.225Z,30.23
2018-09-23T00:07:43.475Z,30.32
2018-09-23T00:08:18.774Z,30.13
2018-09-23T00:08:54.199Z,30.04
2018-09-23T00:09:29.604Z,30.13
2018-09-23T00:10:05.144Z,30.52
2018-09-23T00:10:40.679Z,31.18
2018-09-23T00:11:16.220Z,30.90
2018-09-23T00:11:51.349Z,30.99
2018-09-23T00:12:27.030Z,31.47
2018-09-23T00:13:02.350Z,32.52
2018-09-23T00:13:37.883Z,32.71
2018-09-23T00:14:13.320Z,32.71
2018-09-23T00:14:48.630Z,32.90
2018-09-23T00:15:24.155Z,31.95
2018-09-23T00:15:59.350Z,31.56
2018-09-23T00:16:34.607Z,29.94
2018-09-23T00:17:10.017Z,29.27
2018-09-23T00:17:45.133Z,28.51
2018-09-23T00:18:20.733Z,28.42
2018-09-23T00:18:56.279Z,28.13
2018-09-23T00:19:31.505Z,27.84
2018-09-23T00:20:06.815Z,27.94
2018-09-23T00:20:42.456Z,27.47
2018-09-23T00:21:17.753Z,27.47
2018-09-23T00:21:53.216Z,27.66
2018-09-23T00:22:28.733Z,27.37
2018-09-23T00:23:04.181Z,27.08
2018-09-23T00:23:39.689Z,26.51
2018-09-23T00:24:15.030Z,26.42
2018-09-23T00:24:50.343Z,26.79
2018-09-23T00:25:25.909Z,27.94
2018-09-23T00:26:01.513Z,28.70
2018-09-23T00:26:36.882Z,29.66
2018-09-23T00:27:12.227Z,30.04
2018-09-23T00:27:47.381Z,30.13
2018-09-23T00:28:23.012Z,30.13
2018-09-23T00:28:58.638Z,30.42
2018-09-23T00:29:33.937Z,30.42
2018-09-23T00:30:09.153Z,30.52
2018-09-23T00:30:44.375Z,30.61
2018-09-23T00:31:19.725Z,30.99
2018-09-23T00:31:54.842Z,31.28
2018-09-23T00:32:30.135Z,31.56
2018-09-23T00:33:05.364Z,31.85
2018-09-23T00:33:41.292Z,31.95
2018-09-23T00:34:16.625Z,31.28
2018-09-23T00:34:52.346Z,31.56
2018-09-23T00:35:28.015Z,32.04
2018-09-23T00:36:03.530Z,32.52
2018-09-23T00:36:38.890Z,31.76
2018-09-23T00:37:14.200Z,32.14
2018-09-23T00:37:49.728Z,32.42
2018-09-23T00:38:24.827Z,32.32
2018-09-23T00:39:00.144Z,32.32
2018-09-23T00:39:35.331Z,32.42
2018-09-23T00:40:10.572Z,32.52
2018-09-23T00:40:46.033Z,32.71
2018-09-23T00:41:21.398Z,32.52
2018-09-23T00:41:56.331Z,32.61
2018-09-23T00:42:31.524Z,33.47
2018-09-23T00:43:06.977Z,32.90
2018-09-23T00:43:42.238Z,32.42
2018-09-23T00:44:17.665Z,32.23
2018-09-23T00:44:52.828Z,32.42
2018-09-23T00:45:28.137Z,32.71
2018-09-23T00:46:03.519Z,33.28
2018-09-23T00:46:39.046Z,33.28
2018-09-23T00:47:14.767Z,33.47
2018-09-23T00:47:50.297Z,33.47
2018-09-23T00:48:25.623Z,33.47
2018-09-23T00:49:00.943Z,33.57
2018-09-23T00:49:35.994Z,33.47
2018-09-23T00:50:11.297Z,33.95
2018-09-23T00:50:46.607Z,33.66
2018-09-23T00:51:21.926Z,33.66
2018-09-23T00:51:57.553Z,33.85
2018-09-23T00:52:32.754Z,34.14
2018-09-23T00:53:08.293Z,34.05
2018-09-23T00:53:43.697Z,33.76
2018-09-23T00:54:19.266Z,34.05
2018-09-23T00:54:54.525Z,34.23
2018-09-23T00:55:29.940Z,34.61
2018-09-23T00:56:05.328Z,34.81
2018-09-23T00:56:40.593Z,34.81
2018-09-23T00:57:16.287Z,35.19
2018-09-23T00:57:52.026Z,34.81
2018-09-23T00:58:27.235Z,34.61
2018-09-23T00:59:02.873Z,34.90
2018-09-23T00:59:38.517Z,36.33
2018-09-23T01:00:13.817Z,36.90
2018-09-23T01:00:49.270Z,36.43
2018-09-23T01:01:24.704Z,35.95
2018-09-23T01:02:00.381Z,35.76
2018-09-23T01:02:35.583Z,35.38
2018-09-23T01:03:10.841Z,35.10
2018-09-23T01:03:46.651Z,35.00
2018-09-23T01:04:22.023Z,34.81
2018-09-23T01:04:57.400Z,34.71
2018-09-23T01:05:32.860Z,35.19
2018-09-23T01:06:08.500Z,35.10
2018-09-23T01:06:43.751Z,35.00
2018-09-23T01:07:19.463Z,34.52
2018-09-23T01:07:54.912Z,34.33
2018-09-23T01:08:30.401Z,33.95
2018-09-23T01:09:05.751Z,33.66
2018-09-23T01:09:41.061Z,33.57
2018-09-23T01:10:16.504Z,33.66
2018-09-23T01:10:51.904Z,33.66
2018-09-23T01:11:27.261Z,33.57
2018-09-23T01:12:02.366Z,33.47
2018-09-23T01:12:37.708Z,33.85
2018-09-23T01:13:13.434Z,33.76
2018-09-23T01:13:48.495Z,33.76
2018-09-23T01:14:23.503Z,33.66
2018-09-23T01:14:59.022Z,34.14
2018-09-23T01:15:34.545Z,33.76
2018-09-23T01:16:09.808Z,33.66
2018-09-23T01:16:45.248Z,33.76
2018-09-23T01:17:20.381Z,33.57
2018-09-23T01:17:56.189Z,33.37
2018-09-23T01:18:31.639Z,33.47
2018-09-23T01:19:06.966Z,33.37
2018-09-23T01:19:42.404Z,33.57
2018-09-23T01:20:17.930Z,33.47
2018-09-23T01:20:53.563Z,33.66
2018-09-23T01:21:28.927Z,33.85
2018-09-23T01:22:04.360Z,34.14
2018-09-23T01:22:39.761Z,34.52
2018-09-23T01:23:14.987Z,33.76
2018-09-23T01:23:50.614Z,33.66
2018-09-23T01:24:26.437Z,33.57
2018-09-23T01:25:01.742Z,33.18
2018-09-23T01:25:36.913Z,33.47
2018-09-23T01:26:12.432Z,33.76
2018-09-23T01:26:47.993Z,33.47
2018-09-23T01:27:23.301Z,33.28
2018-09-23T01:27:58.661Z,33.47
2018-09-23T01:28:33.878Z,33.47
2018-09-23T01:29:09.207Z,33.47
2018-09-23T01:29:44.824Z,33.57
2018-09-23T01:30:20.090Z,33.85
2018-09-23T01:30:55.402Z,33.76
2018-09-23T01:31:30.880Z,33.66
2018-09-23T01:32:06.100Z,33.76
2018-09-23T01:32:41.450Z,33.47
2018-09-23T01:33:16.676Z,33.37
2018-09-23T01:33:52.022Z,32.23
2018-09-23T01:34:27.721Z,31.28
2018-09-23T01:35:03.057Z,30.71
2018-09-23T01:35:38.189Z,30.42
2018-09-23T01:36:13.530Z,30.23
2018-09-23T01:36:48.667Z,29.85
2018-09-23T01:37:24.372Z,29.66
2018-09-23T01:37:59.919Z,29.94
2018-09-23T01:38:35.136Z,29.94
2018-09-23T01:39:10.437Z,29.37
2018-09-23T01:39:45.667Z,29.08
2018-09-23T01:40:20.970Z,28.89
2018-09-23T01:40:56.407Z,29.08
2018-09-23T01:41:31.865Z,29.18
2018-09-23T01:42:07.291Z,29.18
2018-09-23T01:42:42.787Z,28.70
2018-09-23T01:43:18.425Z,28.80
2018-09-23T01:43:53.622Z,28.80
2018-09-23T01:44:29.246Z,28.61
2018-09-23T01:45:04.344Z,28.70
2018-09-23T01:45:40.099Z,28.80
2018-09-23T01:46:15.434Z,29.27
2018-09-23T01:46:50.895Z,29.37
2018-09-23T01:47:26.329Z,29.18
2018-09-23T01:48:01.762Z,29.66
2018-09-23T01:48:37.177Z,29.75
2018-09-23T01:49:12.609Z,29.66
2018-09-23T01:49:47.705Z,30.52
2018-09-23T01:50:22.939Z,30.42
2018-09-23T01:50:58.154Z,30.90
2018-09-23T01:51:33.526Z,30.90
2018-09-23T01:52:08.745Z,31.47
2018-09-23T01:52:44.273Z,31.28
2018-09-23T01:53:19.690Z,31.47
2018-09-23T01:53:55.009Z,32.14
2018-09-23T01:54:30.251Z,32.81
2018-09-23T01:55:05.684Z,33.18
2018-09-23T01:55:41.109Z,33.18
2018-09-23T01:56:16.234Z,32.71
2018-09-23T01:56:51.702Z,32.52
2018-09-23T01:57:26.737Z,32.90
2018-09-23T01:58:02.092Z,36.33
2018-09-23T01:58:37.498Z,38.91
2018-09-23T01:59:13.113Z,41.20
2018-09-23T01:59:48.411Z,41.77
2018-09-23T02:00:23.755Z,39.29
2018-09-23T02:00:59.171Z,37.38
2018-09-23T02:01:34.345Z,35.57
2018-09-23T02:02:09.741Z,34.71
2018-09-23T02:02:44.977Z,34.81
2018-09-23T02:03:20.325Z,35.38
2018-09-23T02:03:55.854Z,35.00
2018-09-23T02:04:31.460Z,33.76
2018-09-23T02:05:07.113Z,35.10
2018-09-23T02:05:42.472Z,36.33
2018-09-23T02:06:18.014Z,36.62
2018-09-23T02:06:53.636Z,36.33
2018-09-23T02:07:28.885Z,35.95
2018-09-23T02:08:04.291Z,39.76
2018-09-23T02:08:39.829Z,41.39
2018-09-23T02:09:15.139Z,41.39
2018-09-23T02:09:50.777Z,41.20
2018-09-23T02:10:26.085Z,41.20
2018-09-23T02:11:01.537Z,40.81
2018-09-23T02:11:37.179Z,41.29
2018-09-23T02:12:12.415Z,41.58
2018-09-23T02:12:47.628Z,41.67
2018-09-23T02:13:23.340Z,41.48
2018-09-23T02:13:58.758Z,42.17
2018-09-23T02:14:33.990Z,43.10
2018-09-23T02:15:09.313Z,44.27
2018-09-23T02:15:44.956Z,43.98
2018-09-23T02:16:20.487Z,44.08
2018-09-23T02:16:55.923Z,45.87
2018-09-23T02:17:31.118Z,46.54
2018-09-23T02:18:06.445Z,46.54
2018-09-23T02:18:41.850Z,45.97
2018-09-23T02:19:17.442Z,47.02
2018-09-23T02:19:52.650Z,47.58
2018-09-23T02:20:27.890Z,48.44
2018-09-23T02:21:02.890Z,48.44
2018-09-23T02:21:38.242Z,48.25
2018-09-23T02:22:13.272Z,47.52
2018-09-23T02:22:48.791Z,47.87
2018-09-23T02:23:23.902Z,49.11
2018-09-23T02:23:59.252Z,49.49
2018-09-23T02:24:34.359Z,50.16
2018-09-23T02:25:09.566Z,49.40
2018-09-23T02:25:44.977Z,49.78
2018-09-23T02:26:20.243Z,48.92
2018-09-23T02:26:55.470Z,48.73
2018-09-23T02:27:30.926Z,48.54
2018-09-23T02:28:06.016Z,49.21
2018-09-23T02:28:41.279Z,49.68
2018-09-23T02:29:16.686Z,50.26
2018-09-23T02:29:52.215Z,50.45
2018-09-23T02:30:28.022Z,51.12
2018-09-23T02:31:03.440Z,51.43
2018-09-23T02:31:38.904Z,51.52
2018-09-23T02:32:14.122Z,51.04
2018-09-23T02:32:49.531Z,51.31
2018-09-23T02:33:24.964Z,51.52
2018-09-23T02:33:59.969Z,51.43
2018-09-23T02:34:35.408Z,52.00
2018-09-23T02:35:11.009Z,52.38
2018-09-23T02:35:46.155Z,52.67
2018-09-23T02:36:21.483Z,53.02
2018-09-23T02:36:56.441Z,52.26
2018-09-23T02:37:31.884Z,52.45
2018-09-23T02:38:07.169Z,52.00
2018-09-23T02:38:42.328Z,51.78
2018-09-23T02:39:17.727Z,51.78
2018-09-23T02:39:53.134Z,52.16
2018-09-23T02:40:28.381Z,51.88
2018-09-23T02:41:03.621Z,52.26
2018-09-23T02:41:39.053Z,51.68
2018-09-23T02:42:14.272Z,51.88
2018-09-23T02:42:49.910Z,53.02
2018-09-23T02:43:25.372Z,53.31
2018-09-23T02:44:00.676Z,53.21
2018-09-23T02:44:35.836Z,52.26
2018-09-23T02:45:11.409Z,52.73
2018-09-23T02:45:47.032Z,52.55
2018-09-23T02:46:22.543Z,52.16
2018-09-23T02:46:57.823Z,52.45
2018-09-23T02:47:33.209Z,52.45
2018-09-23T02:48:08.796Z,52.26
2018-09-23T02:48:44.040Z,52.55
2018-09-23T02:49:19.659Z,52.16
2018-09-23T02:49:54.961Z,52.45
2018-09-23T02:50:30.301Z,52.92
2018-09-23T02:51:05.813Z,52.83
2018-09-23T02:51:41.211Z,52.83
2018-09-23T02:52:16.413Z,53.31
2018-09-23T02:52:51.872Z,53.31
2018-09-23T02:53:27.069Z,52.45
2018-09-23T02:54:02.207Z,53.88
2018-09-23T02:54:37.937Z,53.31
2018-09-23T02:55:13.268Z,55.02
2018-09-23T02:55:48.709Z,55.88
2018-09-23T02:56:24.468Z,55.60
2018-09-23T02:56:59.749Z,55.88
2018-09-23T02:57:34.968Z,54.83
2018-09-23T02:58:10.476Z,55.31
2018-09-23T02:58:46.115Z,55.12
2018-09-23T02:59:21.766Z,55.02
2018-09-23T02:59:57.118Z,55.21
2018-09-23T03:00:32.328Z,54.74
2018-09-23T03:01:07.661Z,54.83
2018-09-23T03:01:43.106Z,54.93
2018-09-23T03:02:18.559Z,54.26
2018-09-23T03:02:53.909Z,54.74
2018-09-23T03:03:29.314Z,54.36
2018-09-23T03:04:04.751Z,54.55
2018-09-23T03:04:40.077Z,54.55
2018-09-23T03:05:15.306Z,55.02
2018-09-23T03:05:51.198Z,54.45
2018-09-23T03:06:26.623Z,54.17
2018-09-23T03:07:02.061Z,54.74
2018-09-23T03:07:37.603Z,54.64
2018-09-23T03:08:13.026Z,53.88
2018-09-23T03:08:48.343Z,53.50
2018-09-23T03:09:23.679Z,53.50
2018-09-23T03:09:58.888Z,53.41
2018-09-23T03:10:34.520Z,53.50
2018-09-23T03:11:09.531Z,52.83
2018-09-23T03:11:44.595Z,52.83
2018-09-23T03:12:20.235Z,52.45
2018-09-23T03:12:55.460Z,52.45
2018-09-23T03:13:30.921Z,52.45
2018-09-23T03:14:06.250Z,52.36
2018-09-23T03:14:42.217Z,52.45
2018-09-23T03:15:17.646Z,52.16
2018-09-23T03:15:53.103Z,52.67
2018-09-23T03:16:28.638Z,52.28
2018-09-23T03:17:03.996Z,52.16
2018-09-23T03:17:39.514Z,51.78
2018-09-23T03:18:14.733Z,51.59
2018-09-23T03:18:50.041Z,52.26
2018-09-23T03:19:25.353Z,52.00
2018-09-23T03:20:00.596Z,51.81
2018-09-23T03:20:36.161Z,51.81
2018-09-23T03:21:11.515Z,51.43
2018-09-23T03:21:46.999Z,52.09
2018-09-23T03:22:22.415Z,51.43
2018-09-23T03:22:57.734Z,52.00
2018-09-23T03:23:32.930Z,51.90
2018-09-23T03:24:08.076Z,52.38
2018-09-23T03:24:43.605Z,51.90
2018-09-23T03:25:19.272Z,51.81
2018-09-23T03:25:54.682Z,52.57
2018-09-23T03:26:30.029Z,51.97
2018-09-23T03:27:05.385Z,52.45
2018-09-23T03:27:40.816Z,51.50
2018-09-23T03:28:15.953Z,51.97
2018-09-23T03:28:51.513Z,51.78
2018-09-23T03:29:26.810Z,51.21
2018-09-23T03:30:02.047Z,51.31
2018-09-23T03:30:37.428Z,51.02
2018-09-23T03:31:12.757Z,51.04
2018-09-23T03:31:48.204Z,51.04
2018-09-23T03:32:24.163Z,51.02
2018-09-23T03:32:59.441Z,50.38
2018-09-23T03:33:35.010Z,50.92
2018-09-23T03:34:10.415Z,51.04
2018-09-23T03:34:45.958Z,50.57
2018-09-23T03:35:21.277Z,50.67
2018-09-23T03:35:56.413Z,50.67
2018-09-23T03:36:31.856Z,50.92
2018-09-23T03:37:07.600Z,51.02
2018-09-23T03:37:42.897Z,50.95
2018-09-23T03:38:18.442Z,51.23
2018-09-23T03:38:53.872Z,51.21
2018-09-23T03:39:29.419Z,51.31
2018-09-23T03:40:04.403Z,51.21
2018-09-23T03:40:39.841Z,51.33
2018-09-23T03:41:15.088Z,50.85
2018-09-23T03:41:50.636Z,50.83
2018-09-23T03:42:26.149Z,50.92
2018-09-23T03:43:01.490Z,50.16
2018-09-23T03:43:36.697Z,49.90
2018-09-23T03:44:12.327Z,50.16
2018-09-23T03:44:47.953Z,50.07
2018-09-23T03:45:23.200Z,50.73
2018-09-23T03:45:58.513Z,50.35
2018-09-23T03:46:33.859Z,50.16
2018-09-23T03:47:09.063Z,49.97
2018-09-23T03:47:44.406Z,49.78
2018-09-23T03:48:19.738Z,49.68
2018-09-23T03:48:54.783Z,49.71
2018-09-23T03:49:30.195Z,49.71
2018-09-23T03:50:05.551Z,50.07
2018-09-23T03:50:40.833Z,49.40
2018-09-23T03:51:16.129Z,49.52
2018-09-23T03:51:51.419Z,49.40
2018-09-23T03:52:26.774Z,49.42
2018-09-23T03:53:02.187Z,49.33
2018-09-23T03:53:37.714Z,49.33
2018-09-23T03:54:13.217Z,49.62
2018-09-23T03:54:48.845Z,49.62
2018-09-23T03:55:24.244Z,49.52
2018-09-23T03:55:59.691Z,49.42
2018-09-23T03:56:34.915Z,48.94
2018-09-23T03:57:10.251Z,48.94
2018-09-23T03:57:46.176Z,48.47
2018-09-23T03:58:21.600Z,49.04
2018-09-23T03:58:56.854Z,48.28
2018-09-23T03:59:32.199Z,48.85
2018-09-23T04:00:07.714Z,48.75
2018-09-23T04:00:43.318Z,48.08
2018-09-23T04:01:18.650Z,46.34
2018-09-23T04:01:53.839Z,45.78
2018-09-23T04:02:29.224Z,45.51
2018-09-23T04:03:04.550Z,45.10
2018-09-23T04:03:39.856Z,43.96
2018-09-23T04:04:15.289Z,42.53
2018-09-23T04:04:50.693Z,41.29
2018-09-23T04:05:26.140Z,43.22
2018-09-23T04:06:01.445Z,44.46
2018-09-23T04:06:36.807Z,44.94
2018-09-23T04:07:12.226Z,44.92
2018-09-23T04:07:47.769Z,45.51
2018-09-23T04:08:22.861Z,45.51
2018-09-23T04:08:58.103Z,44.65
2018-09-23T04:09:33.416Z,44.65
2018-09-23T04:10:08.760Z,44.34
2018-09-23T04:10:44.169Z,44.34
2018-09-23T04:11:19.572Z,44.73
2018-09-23T04:11:54.792Z,45.20
2018-09-23T04:12:30.005Z,45.49
2018-09-23T04:13:05.714Z,44.63
2018-09-23T04:13:40.873Z,44.44
2018-09-23T04:14:16.485Z,44.06
2018-09-23T04:14:51.823Z,44.44
2018-09-23T04:15:27.155Z,43.39
2018-09-23T04:16:02.713Z,43.29
2018-09-23T04:16:38.261Z,42.44
2018-09-23T04:17:13.270Z,42.44
2018-09-23T04:17:48.680Z,41.86
2018-09-23T04:18:24.111Z,41.20
2018-09-23T04:18:59.411Z,40.91
2018-09-23T04:19:34.756Z,40.72
2018-09-23T04:20:09.848Z,40.91
2018-09-23T04:20:45.213Z,40.81
2018-09-23T04:21:20.534Z,40.53
2018-09-23T04:21:56.472Z,40.05
2018-09-23T04:22:31.599Z,39.67
2018-09-23T04:23:06.830Z,39.29
2018-09-23T04:23:41.914Z,38.91
2018-09-23T04:24:17.299Z,38.71
2018-09-23T04:24:52.532Z,38.43
2018-09-23T04:25:28.018Z,38.15
2018-09-23T04:26:03.409Z,37.29
2018-09-23T04:26:38.762Z,36.90
2018-09-23T04:27:14.163Z,36.52
2018-09-23T04:27:49.493Z,35.95
2018-09-23T04:28:24.693Z,35.28
2018-09-23T04:29:00.013Z,34.81
2018-09-23T04:29:35.730Z,34.52
2018-09-23T04:30:11.086Z,34.71
2018-09-23T04:30:46.401Z,34.61
2018-09-23T04:31:21.564Z,34.71
2018-09-23T04:31:58.266Z,35.19
2018-09-23T04:32:33.391Z,35.28
2018-09-23T04:33:09.013Z,36.05
2018-09-23T04:33:44.356Z,35.57
2018-09-23T04:34:19.442Z,35.00
2018-09-23T04:34:54.578Z,35.47
2018-09-23T04:35:30.084Z,35.86
2018-09-23T04:36:05.670Z,35.86
2018-09-23T04:36:40.694Z,35.95
2018-09-23T04:37:16.245Z,35.86
2018-09-23T04:37:51.944Z,35.76
2018-09-23T04:38:27.511Z,35.86
2018-09-23T04:39:03.154Z,35.57
2018-09-23T04:39:38.379Z,35.57
2018-09-23T04:40:13.617Z,35.57
2018-09-23T04:40:48.947Z,35.28
2018-09-23T04:41:24.467Z,35.38
2018-09-23T04:42:00.002Z,35.10
2018-09-23T04:42:35.224Z,35.28
2018-09-23T04:43:10.390Z,35.10
2018-09-23T04:43:45.808Z,35.28
2018-09-23T04:44:21.266Z,35.00
2018-09-23T04:44:56.687Z,35.76
2018-09-23T04:45:31.895Z,35.57
2018-09-23T04:46:07.338Z,35.78
2018-09-23T04:46:42.781Z,35.57
2018-09-23T04:47:18.105Z,35.47
2018-09-23T04:47:53.672Z,35.87
2018-09-23T04:48:28.998Z,36.05
2018-09-23T04:49:04.446Z,36.81
2018-09-23T04:49:39.568Z,37.10
2018-09-23T04:50:15.007Z,37.02
2018-09-23T04:50:50.473Z,37.10
2018-09-23T04:51:26.207Z,37.38
2018-09-23T04:52:01.696Z,37.48
2018-09-23T04:52:37.240Z,37.10
2018-09-23T04:53:12.743Z,37.00
2018-09-23T04:53:48.082Z,36.71
2018-09-23T04:54:23.197Z,36.71
2018-09-23T04:54:58.755Z,36.43
2018-09-23T04:55:34.272Z,36.62
2018-09-23T04:56:09.708Z,36.54
2018-09-23T04:56:45.854Z,37.12
2018-09-23T04:57:21.380Z,37.78
2018-09-23T04:57:56.975Z,38.81
2018-09-23T04:58:32.423Z,39.48
2018-09-23T04:59:07.754Z,39.19
2018-09-23T04:59:43.192Z,39.48
2018-09-23T05:00:18.696Z,39.95
2018-09-23T05:00:54.158Z,39.98
2018-09-23T05:01:29.593Z,39.86
2018-09-23T05:02:04.926Z,39.76
2018-09-23T05:02:40.316Z,39.88
2018-09-23T05:03:15.845Z,40.05
2018-09-23T05:03:51.377Z,39.95
2018-09-23T05:04:26.811Z,39.86
2018-09-23T05:05:02.109Z,40.05
2018-09-23T05:05:37.933Z,40.91
2018-09-23T05:06:13.230Z,40.64
2018-09-23T05:06:48.778Z,41.39
2018-09-23T05:07:24.080Z,41.77
2018-09-23T05:07:59.425Z,41.41
2018-09-23T05:08:34.823Z,41.10
2018-09-23T05:09:10.154Z,40.74
2018-09-23T05:09:45.460Z,40.74
2018-09-23T05:10:21.087Z,41.10
2018-09-23T05:10:56.391Z,41.20
2018-09-23T05:11:31.724Z,41.41
2018-09-23T05:12:06.911Z,40.72
2018-09-23T05:12:45.378Z,40.64
2018-09-23T05:13:20.708Z,40.45
2018-09-23T05:13:56.126Z,40.74
2018-09-23T05:14:31.516Z,40.93
2018-09-23T05:15:06.985Z,40.91
2018-09-23T05:15:42.508Z,40.72
2018-09-23T05:16:18.165Z,40.64
2018-09-23T05:16:53.370Z,40.74
2018-09-23T05:17:28.898Z,40.63
2018-09-23T05:18:04.196Z,40.74
2018-09-23T05:18:39.456Z,40.93
2018-09-23T05:19:14.795Z,41.12
2018-09-23T05:19:50.129Z,40.83
2018-09-23T05:20:25.351Z,40.93
2018-09-23T05:21:00.790Z,40.93
2018-09-23T05:21:36.343Z,40.64
2018-09-23T05:22:11.878Z,41.12
2018-09-23T05:22:47.409Z,42.65
2018-09-23T05:23:22.631Z,43.87
2018-09-23T05:24:01.063Z,43.03
2018-09-23T05:24:37.123Z,43.79
2018-09-23T05:25:11.800Z,43.79
2018-09-23T05:25:47.019Z,43.58
2018-09-23T05:26:22.544Z,43.51
2018-09-23T05:26:57.900Z,43.29
2018-09-23T05:27:33.609Z,43.32
2018-09-23T05:28:08.838Z,44.46
2018-09-23T05:28:44.246Z,43.98
2018-09-23T05:29:19.594Z,43.01
2018-09-23T05:29:54.708Z,41.98
2018-09-23T05:30:30.129Z,42.17
2018-09-23T05:31:05.651Z,43.22
2018-09-23T05:31:41.100Z,44.37
2018-09-23T05:32:16.641Z,44.34
2018-09-23T05:32:51.966Z,43.98
2018-09-23T05:33:27.700Z,44.17
2018-09-23T05:34:03.229Z,43.70
2018-09-23T05:34:38.443Z,44.08
2018-09-23T05:35:13.959Z,43.22
2018-09-23T05:35:49.208Z,43.70
2018-09-23T05:36:24.415Z,43.41
2018-09-23T05:37:00.050Z,43.89
2018-09-23T05:37:35.492Z,44.46
2018-09-23T05:38:10.901Z,43.32
2018-09-23T05:38:46.023Z,43.51
2018-09-23T05:39:21.348Z,44.08
2018-09-23T05:39:56.696Z,44.17
2018-09-23T05:40:32.032Z,44.27
2018-09-23T05:41:07.357Z,45.22
2018-09-23T05:41:42.629Z,45.32
2018-09-23T05:42:17.964Z,45.51
2018-09-23T05:42:53.461Z,45.51
2018-09-23T05:43:28.796Z,44.84
2018-09-23T05:44:04.561Z,44.74
2018-09-23T05:44:40.122Z,45.42
2018-09-23T05:45:15.760Z,45.61
2018-09-23T05:45:51.089Z,44.65
2018-09-23T05:46:26.525Z,44.65
2018-09-23T05:47:01.976Z,44.27
2018-09-23T05:47:37.379Z,44.08
2018-09-23T05:48:12.905Z,44.84
2018-09-23T05:48:48.339Z,44.74
2018-09-23T05:49:23.769Z,44.94
2018-09-23T05:49:58.873Z,44.46
2018-09-23T05:50:34.208Z,44.65
2018-09-23T05:51:09.623Z,44.94
2018-09-23T05:51:45.100Z,45.61
2018-09-23T05:52:20.441Z,45.13
2018-09-23T05:52:55.696Z,44.46
2018-09-23T05:53:30.975Z,44.46
2018-09-23T05:54:06.314Z,44.65
2018-09-23T05:54:41.797Z,45.79
2018-09-23T05:55:17.233Z,45.42
2018-09-23T05:55:52.814Z,45.89
2018-09-23T05:56:28.142Z,45.61
2018-09-23T05:57:03.648Z,45.13
2018-09-23T05:57:38.867Z,45.22
2018-09-23T05:58:14.193Z,45.22
2018-09-23T05:58:49.539Z,44.74
2018-09-23T05:59:24.857Z,45.61
2018-09-23T06:00:00.171Z,46.75
2018-09-23T06:00:35.484Z,45.99
2018-09-23T06:01:10.708Z,45.89
2018-09-23T06:01:45.842Z,46.18
2018-09-23T06:02:21.471Z,47.03
2018-09-23T06:02:56.903Z,46.94
2018-09-23T06:03:32.321Z,46.27
2018-09-23T06:04:07.746Z,47.03
2018-09-23T06:04:42.889Z,46.27
2018-09-23T06:05:18.271Z,46.47
2018-09-23T06:05:53.690Z,45.99
2018-09-23T06:06:29.044Z,45.89
2018-09-23T06:07:04.365Z,45.99
2018-09-23T06:07:39.596Z,45.99
2018-09-23T06:08:15.314Z,46.08
2018-09-23T06:08:50.702Z,46.18
2018-09-23T06:09:26.059Z,46.37
2018-09-23T06:10:01.475Z,45.99
2018-09-23T06:10:37.030Z,45.89
2018-09-23T06:11:12.574Z,47.23
2018-09-23T06:11:47.988Z,46.27
2018-09-23T06:12:23.421Z,46.56
2018-09-23T06:12:58.864Z,46.66
2018-09-23T06:13:34.381Z,46.66
2018-09-23T06:14:09.737Z,46.75
2018-09-23T06:14:45.151Z,47.03
2018-09-23T06:15:20.607Z,47.80
2018-09-23T06:15:56.093Z,47.89
2018-09-23T06:16:31.271Z,48.57
2018-09-23T06:17:06.587Z,48.85
2018-09-23T06:17:42.012Z,47.32
2018-09-23T06:18:17.331Z,47.32
2018-09-23T06:18:52.821Z,46.84
2018-09-23T06:19:28.315Z,46.75
2018-09-23T06:20:03.939Z,47.71
2018-09-23T06:20:39.450Z,47.61
2018-09-23T06:21:14.892Z,47.80
2018-09-23T06:21:50.397Z,47.61
2018-09-23T06:22:25.833Z,47.23
2018-09-23T06:23:01.241Z,47.61
2018-09-23T06:23:36.678Z,48.18
2018-09-23T06:24:12.067Z,48.66
2018-09-23T06:24:47.306Z,48.85
2018-09-23T06:25:22.746Z,48.85
2018-09-23T06:25:58.150Z,48.85
2018-09-23T06:26:33.496Z,48.94
2018-09-23T06:27:08.921Z,48.85
2018-09-23T06:27:44.201Z,49.04
2018-09-23T06:28:19.448Z,48.66
2018-09-23T06:28:55.060Z,48.94
2018-09-23T06:29:30.512Z,49.62
2018-09-23T06:30:06.453Z,49.99
2018-09-23T06:30:41.766Z,49.99
2018-09-23T06:31:17.087Z,50.09
2018-09-23T06:31:52.816Z,51.04
2018-09-23T06:32:28.130Z,50.85
2018-09-23T06:33:03.690Z,51.04
2018-09-23T06:33:38.885Z,51.14
2018-09-23T06:34:14.268Z,52.09
2018-09-23T06:34:49.306Z,51.90
2018-09-23T06:35:24.758Z,52.09
2018-09-23T06:36:00.050Z,52.09
2018-09-23T06:36:35.413Z,52.00
2018-09-23T06:37:10.742Z,51.81
2018-09-23T06:37:46.156Z,51.23
2018-09-23T06:38:21.473Z,51.23
2018-09-23T06:38:56.884Z,51.52
2018-09-23T06:39:32.287Z,51.33
2018-09-23T06:40:07.739Z,51.23
2018-09-23T06:40:43.081Z,51.62
2018-09-23T06:41:18.645Z,51.81
2018-09-23T06:41:54.155Z,51.14
2018-09-23T06:42:29.605Z,50.95
2018-09-23T06:43:05.143Z,51.04
2018-09-23T06:43:40.573Z,51.43
2018-09-23T06:44:15.993Z,51.43
2018-09-23T06:44:51.458Z,51.43
2018-09-23T06:45:26.896Z,51.14
2018-09-23T06:46:02.068Z,50.67
2018-09-23T06:46:37.198Z,51.33
2018-09-23T06:47:12.636Z,53.33
2018-09-23T06:47:47.836Z,52.28
2018-09-23T06:48:22.973Z,52.48
2018-09-23T06:48:58.303Z,52.38
2018-09-23T06:49:33.642Z,51.43
2018-09-23T06:50:08.853Z,51.14
2018-09-23T06:50:44.172Z,51.62
2018-09-23T06:51:19.607Z,51.90
2018-09-23T06:51:56.931Z,51.90
2018-09-23T06:52:32.026Z,52.48
2018-09-23T06:53:07.359Z,52.67
2018-09-23T06:53:42.674Z,51.62
2018-09-23T06:54:18.115Z,51.90
2018-09-23T06:54:53.441Z,52.09
2018-09-23T06:55:28.866Z,52.09
2018-09-23T06:56:04.463Z,51.33
2018-09-23T06:56:39.715Z,52.09
2018-09-23T06:57:15.065Z,52.00
2018-09-23T06:57:50.466Z,51.90
2018-09-23T06:58:25.579Z,51.81
2018-09-23T06:59:01.605Z,51.90
2018-09-23T06:59:36.809Z,51.71
2018-09-23T07:00:12.332Z,51.81
2018-09-23T07:00:47.933Z,51.33
2018-09-23T07:01:23.515Z,51.23
2018-09-23T07:01:59.160Z,51.45
2018-09-23T07:02:34.583Z,51.52
2018-09-23T07:03:09.802Z,53.81
2018-09-23T07:03:45.189Z,53.62
2018-09-23T07:04:20.327Z,52.28
2018-09-23T07:04:55.939Z,53.05
2018-09-23T07:05:31.170Z,52.48
2018-09-23T07:06:06.535Z,52.19
2018-09-23T07:06:42.053Z,53.24
2018-09-23T07:07:17.506Z,52.69
2018-09-23T07:07:52.730Z,53.05
2018-09-23T07:08:27.954Z,54.00
2018-09-23T07:09:03.454Z,53.14
2018-09-23T07:09:38.985Z,52.76
2018-09-23T07:10:14.100Z,53.24
2018-09-23T07:10:49.234Z,52.40
2018-09-23T07:11:24.591Z,52.48
2018-09-23T07:12:00.151Z,54.00
2018-09-23T07:12:35.739Z,54.19
2018-09-23T07:13:10.869Z,53.72
2018-09-23T07:13:46.133Z,53.53
2018-09-23T07:14:21.251Z,52.67
2018-09-23T07:14:56.703Z,53.33
2018-09-23T07:15:32.055Z,52.88
2018-09-23T07:16:07.378Z,52.50
2018-09-23T07:16:42.722Z,53.53
2018-09-23T07:17:18.060Z,53.62
2018-09-23T07:17:53.074Z,52.79
2018-09-23T07:18:28.306Z,53.45
2018-09-23T07:19:03.602Z,53.74
2018-09-23T07:19:38.867Z,54.77
2018-09-23T07:20:14.006Z,54.96
2018-09-23T07:20:49.635Z,54.86
2018-09-23T07:21:24.850Z,54.19
2018-09-23T07:22:00.319Z,55.65
2018-09-23T07:22:35.842Z,54.96
2018-09-23T07:23:11.086Z,54.22
2018-09-23T07:23:46.518Z,53.72
2018-09-23T07:24:21.626Z,54.00
2018-09-23T07:24:56.967Z,54.79
2018-09-23T07:25:32.290Z,54.67
2018-09-23T07:26:07.671Z,53.74
2018-09-23T07:26:43.015Z,52.88
2018-09-23T07:27:18.525Z,53.84
2018-09-23T07:27:54.172Z,54.86
2018-09-23T07:28:29.476Z,54.38
2018-09-23T07:29:05.023Z,53.65
2018-09-23T07:29:40.315Z,52.98
2018-09-23T07:30:15.568Z,54.38
2018-09-23T07:30:50.516Z,53.27
2018-09-23T07:31:26.033Z,54.79
2018-09-23T07:32:01.433Z,55.75
2018-09-23T07:32:36.929Z,55.18
2018-09-23T07:33:12.234Z,55.46
2018-09-23T07:33:47.678Z,55.82
2018-09-23T07:34:23.091Z,56.48
2018-09-23T07:34:58.701Z,56.13
2018-09-23T07:35:34.229Z,55.84